createdAt,value
2022-08-29T00:00:20.827Z,11.35
2022-08-29T00:02:53.477Z,8.32
2022-08-29T00:05:27.357Z,10.15
2022-08-29T00:07:55.863Z,14.15
2022-08-29T00:10:23.465Z,11.73
2022-08-29T00:12:51.177Z,8.32
2022-08-29T00:15:20.774Z,7.43
2022-08-29T00:17:49.165Z,8.00
2022-08-29T00:20:30.284Z,9.43
2022-08-29T00:23:05.996Z,8.07
2022-08-29T00:25:33.488Z,7.68
2022-08-29T00:28:01.660Z,10.35
2022-08-29T00:30:29.556Z,7.68
2022-08-29T00:32:58.052Z,7.68
2022-08-29T00:35:32.991Z,7.22
2022-08-29T00:38:05.557Z,8.23
2022-08-29T00:40:51.120Z,8.10
2022-08-29T00:43:27.113Z,7.03
2022-08-29T00:46:57.103Z,7.80
2022-08-29T00:49:48.572Z,8.05
2022-08-29T00:52:34.927Z,7.10
2022-08-29T00:55:11.103Z,10.15
2022-08-29T00:57:48.043Z,7.57
2022-08-29T01:00:17.443Z,7.78
2022-08-29T01:02:45.098Z,7.53
2022-08-29T01:05:17.918Z,7.35
2022-08-29T01:07:46.883Z,7.45
2022-08-29T01:10:36.960Z,8.85
2022-08-29T01:13:07.496Z,7.00
2022-08-29T01:15:37.176Z,9.63
2022-08-29T01:18:06.803Z,7.85
2022-08-29T01:21:29.040Z,7.30
2022-08-29T01:24:39.660Z,9.88
2022-08-29T01:27:07.765Z,6.97
2022-08-29T01:29:36.120Z,8.00
2022-08-29T01:32:05.777Z,7.40
2022-08-29T01:34:33.333Z,7.40
2022-08-29T01:37:08.396Z,8.20
2022-08-29T01:39:42.831Z,8.63
2022-08-29T01:42:23.042Z,10.60
2022-08-29T01:45:02.904Z,7.85
2022-08-29T01:47:35.272Z,9.38
2022-08-29T01:50:15.352Z,12.23
2022-08-29T01:52:43.528Z,7.50
2022-08-29T01:55:11.525Z,8.15
2022-08-29T01:57:40.957Z,8.40
2022-08-29T02:00:11.868Z,7.82
2022-08-29T02:02:41.099Z,11.13
2022-08-29T02:05:09.811Z,8.27
2022-08-29T02:07:37.213Z,7.68
2022-08-29T02:10:07.567Z,7.55
2022-08-29T02:12:40.922Z,9.05
2022-08-29T02:15:09.517Z,8.15
2022-08-29T02:17:38.375Z,7.75
2022-08-29T02:20:09.129Z,7.57
2022-08-29T02:22:38.939Z,7.35
2022-08-29T02:25:29.832Z,8.13
2022-08-29T02:27:57.696Z,10.52
2022-08-29T02:30:25.726Z,8.52
2022-08-29T02:32:54.038Z,7.18
2022-08-29T02:35:22.643Z,8.48
2022-08-29T02:37:52.387Z,8.88
2022-08-29T02:40:19.961Z,7.47
2022-08-29T02:42:53.728Z,8.75
2022-08-29T02:45:23.677Z,9.00
2022-08-29T02:47:51.429Z,8.00
2022-08-29T02:50:19.241Z,8.27
2022-08-29T02:52:47.553Z,13.30
2022-08-29T02:55:20.389Z,9.05
2022-08-29T02:57:48.077Z,9.07
2022-08-29T03:00:25.404Z,9.55
2022-08-29T03:02:56.144Z,7.90
2022-08-29T03:05:30.737Z,8.30
2022-08-29T03:07:58.999Z,8.23
2022-08-29T03:10:27.139Z,7.93
2022-08-29T03:12:56.527Z,9.60
2022-08-29T03:15:24.844Z,8.27
2022-08-29T03:17:52.789Z,7.25
2022-08-29T03:20:24.072Z,8.43
2022-08-29T03:22:54.108Z,8.43
2022-08-29T03:25:24.562Z,10.07
2022-08-29T03:30:21.493Z,7.80
2022-08-29T03:32:52.145Z,7.93
2022-08-29T03:35:19.969Z,8.10
2022-08-29T03:37:47.653Z,11.30
2022-08-29T03:40:16.040Z,8.82
2022-08-29T03:42:43.410Z,7.63
2022-08-29T03:45:16.215Z,8.15
2022-08-29T03:47:43.703Z,9.00
2022-08-29T03:50:15.016Z,7.13
2022-08-29T03:52:44.181Z,9.52
2022-08-29T03:55:13.791Z,11.95
2022-08-29T03:57:41.315Z,9.40
2022-08-29T04:00:17.270Z,7.70
2022-08-29T04:02:47.939Z,8.07
2022-08-29T04:05:18.115Z,12.23
2022-08-29T04:07:57.973Z,8.85
2022-08-29T04:10:41.317Z,8.18
2022-08-29T04:13:11.185Z,10.38
2022-08-29T04:15:42.798Z,8.07
2022-08-29T04:18:11.950Z,8.15
2022-08-29T04:20:44.972Z,9.18
2022-08-29T04:23:15.248Z,11.80
2022-08-29T04:25:44.555Z,9.68
2022-08-29T04:28:14.760Z,9.15
2022-08-29T04:33:25.700Z,9.05
2022-08-29T04:35:53.679Z,9.98
2022-08-29T04:38:21.200Z,8.52
2022-08-29T04:40:48.845Z,9.27
2022-08-29T04:43:16.153Z,10.52
2022-08-29T04:45:43.509Z,11.38
2022-08-29T04:48:11.016Z,8.82
2022-08-29T04:50:39.097Z,9.27
2022-08-29T04:53:06.492Z,10.88
2022-08-29T04:55:33.816Z,10.18
2022-08-29T04:58:01.496Z,9.60
2022-08-29T05:00:30.633Z,8.30
2022-08-29T05:02:58.507Z,9.40
2022-08-29T05:05:26.568Z,12.00
2022-08-29T05:07:53.928Z,12.77
2022-08-29T05:10:22.599Z,8.25
2022-08-29T05:12:50.126Z,9.02
2022-08-29T05:15:18.653Z,10.70
2022-08-29T05:17:46.109Z,8.20
2022-08-29T05:20:14.249Z,11.95
2022-08-29T05:22:42.856Z,9.10
2022-08-29T05:25:17.944Z,10.15
2022-08-29T05:27:46.786Z,8.82
2022-08-29T05:30:34.010Z,13.32
2022-08-29T05:33:02.213Z,11.13
2022-08-29T05:35:29.609Z,12.30
2022-08-29T05:37:56.979Z,10.27
2022-08-29T05:40:24.651Z,11.82
2022-08-29T05:42:54.434Z,13.45
2022-08-29T05:45:22.396Z,12.93
2022-08-29T05:47:51.035Z,14.85
2022-08-29T05:50:18.531Z,13.10
2022-08-29T05:52:46.029Z,10.38
2022-08-29T05:55:13.495Z,11.30
2022-08-29T05:57:41.672Z,12.60
2022-08-29T06:00:12.240Z,10.77
2022-08-29T06:02:39.804Z,10.75
2022-08-29T06:05:10.599Z,13.30
2022-08-29T06:07:38.121Z,8.05
2022-08-29T06:10:06.917Z,9.30
2022-08-29T06:12:35.584Z,9.65
2022-08-29T06:15:03.431Z,11.93
2022-08-29T06:17:34.008Z,11.23
2022-08-29T06:20:01.490Z,11.32
2022-08-29T06:22:28.816Z,10.55
2022-08-29T06:24:57.685Z,14.52
2022-08-29T06:27:25.951Z,11.77
2022-08-29T06:29:53.399Z,11.68
2022-08-29T06:32:20.779Z,12.95
2022-08-29T06:34:48.148Z,12.90
2022-08-29T06:37:15.606Z,11.60
2022-08-29T06:39:43.026Z,22.40
2022-08-29T06:42:10.422Z,9.15
2022-08-29T06:44:42.479Z,13.82
2022-08-29T06:47:12.088Z,11.45
2022-08-29T06:49:39.579Z,13.73
2022-08-29T06:52:06.944Z,12.48
2022-08-29T06:54:34.296Z,9.63
2022-08-29T06:57:01.625Z,13.85
2022-08-29T06:59:28.936Z,9.43
2022-08-29T07:01:56.436Z,13.23
2022-08-29T07:04:26.469Z,11.05
2022-08-29T07:06:54.579Z,10.82
2022-08-29T07:09:22.037Z,8.98
2022-08-29T07:11:49.341Z,12.25
2022-08-29T07:14:16.704Z,11.43
2022-08-29T07:16:44.042Z,11.07
2022-08-29T07:19:12.135Z,8.55
2022-08-29T07:21:39.955Z,13.57
2022-08-29T07:24:08.732Z,10.60
2022-08-29T07:26:42.964Z,9.93
2022-08-29T07:29:20.342Z,10.73
2022-08-29T07:31:49.008Z,11.25
2022-08-29T07:34:36.838Z,10.55
2022-08-29T07:37:28.835Z,12.05
2022-08-29T07:40:09.464Z,11.32
2022-08-29T07:42:53.364Z,11.07
2022-08-29T07:45:35.267Z,13.07
2022-08-29T07:48:11.218Z,11.10
2022-08-29T07:50:59.446Z,11.15
2022-08-29T07:53:39.541Z,14.52
2022-08-29T07:56:30.323Z,14.68
2022-08-29T07:59:14.081Z,12.27
2022-08-29T08:01:48.377Z,11.73
2022-08-29T08:04:57.853Z,11.13
2022-08-29T08:07:44.867Z,16.13
2022-08-29T08:10:26.252Z,9.60
2022-08-29T08:13:17.829Z,11.05
2022-08-29T08:16:05.193Z,8.82
2022-08-29T08:18:57.016Z,8.82
2022-08-29T08:21:49.647Z,8.80
2022-08-29T08:27:26.891Z,8.50
2022-08-29T08:30:19.959Z,8.88
2022-08-29T08:33:00.190Z,8.93
2022-08-29T08:35:55.241Z,9.48
2022-08-29T08:38:35.972Z,7.72
2022-08-29T08:41:55.284Z,8.25
2022-08-29T08:45:33.667Z,7.82
2022-08-29T08:48:48.221Z,7.03
2022-08-29T08:51:33.708Z,11.52
2022-08-29T08:54:49.806Z,11.52
2022-08-29T08:57:39.908Z,13.63
2022-08-29T09:00:32.736Z,7.90
2022-08-29T09:04:21.528Z,7.65
2022-08-29T09:07:55.547Z,7.43
2022-08-29T09:11:34.016Z,6.25
2022-08-29T09:15:03.156Z,8.85
2022-08-29T09:18:21.841Z,7.47
2022-08-29T09:21:29.942Z,6.70
2022-08-29T09:24:43.053Z,7.68
2022-08-29T09:27:38.659Z,9.07
2022-08-29T09:30:36.849Z,9.88
2022-08-29T09:33:24.685Z,13.50
2022-08-29T09:36:03.372Z,11.60
2022-08-29T09:38:49.539Z,9.23
2022-08-29T09:41:34.264Z,9.55
2022-08-29T09:44:44.236Z,11.98
2022-08-29T09:47:41.781Z,8.77
2022-08-29T09:50:32.813Z,10.20
2022-08-29T09:53:34.147Z,9.73
2022-08-29T09:56:34.629Z,9.25
2022-08-29T09:59:36.029Z,8.32
2022-08-29T10:03:07.365Z,12.48
2022-08-29T10:06:11.911Z,9.68
2022-08-29T10:10:01.393Z,8.40
2022-08-29T10:13:26.911Z,10.93
2022-08-29T10:16:38.004Z,8.75
2022-08-29T10:19:34.299Z,7.90
2022-08-29T10:22:37.975Z,6.32
2022-08-29T10:25:46.099Z,7.10
2022-08-29T10:29:12.227Z,9.55
2022-08-29T10:32:25.714Z,7.93
2022-08-29T10:36:09.152Z,8.60
2022-08-29T10:39:19.416Z,6.35
2022-08-29T10:42:43.677Z,7.22
2022-08-29T10:46:40.163Z,9.65
2022-08-29T10:50:10.197Z,8.98
2022-08-29T10:54:02.710Z,8.02
2022-08-29T10:57:00.932Z,10.63
2022-08-29T11:00:28.072Z,10.35
2022-08-29T11:03:20.625Z,7.10
2022-08-29T11:09:59.357Z,6.65
2022-08-29T11:13:39.928Z,5.50
2022-08-29T11:17:04.337Z,5.20
2022-08-29T11:20:42.219Z,5.15
2022-08-29T11:23:52.799Z,6.32
2022-08-29T11:26:45.351Z,5.68
2022-08-29T11:30:18.031Z,7.90
2022-08-29T11:34:13.656Z,6.38
2022-08-29T11:38:19.108Z,6.05
2022-08-29T11:41:42.234Z,5.75
2022-08-29T11:44:31.218Z,4.40
2022-08-29T11:47:46.226Z,4.57
2022-08-29T11:50:23.570Z,4.20
2022-08-29T11:53:48.314Z,5.55
2022-08-29T11:56:41.663Z,4.15
2022-08-29T12:03:00.974Z,5.95
2022-08-29T12:06:06.545Z,4.28
2022-08-29T12:09:41.140Z,4.95
2022-08-29T12:12:49.154Z,4.70
2022-08-29T12:16:13.031Z,3.53
2022-08-29T12:19:08.749Z,3.35
2022-08-29T12:21:55.259Z,3.78
2022-08-29T12:24:57.255Z,4.50
2022-08-29T12:28:35.943Z,4.68
2022-08-29T12:32:32.435Z,4.32
2022-08-29T12:36:01.107Z,3.42
2022-08-29T12:39:53.351Z,4.30
2022-08-29T12:43:19.827Z,4.07
2022-08-29T12:49:31.973Z,7.93
2022-08-29T12:53:13.061Z,3.80
2022-08-29T12:56:15.563Z,3.75
2022-08-29T12:59:18.324Z,3.20
2022-08-29T13:02:43.240Z,3.05
2022-08-29T13:05:40.920Z,2.97
2022-08-29T13:09:06.381Z,4.53
2022-08-29T13:12:50.901Z,4.15
2022-08-29T13:15:55.401Z,3.83
2022-08-29T13:19:12.453Z,3.25
2022-08-29T13:22:47.254Z,4.85
2022-08-29T13:26:50.671Z,3.67
2022-08-29T13:30:24.738Z,3.25
2022-08-29T13:33:55.042Z,3.05
2022-08-29T13:37:16.459Z,3.55
2022-08-29T13:41:02.396Z,3.50
2022-08-29T13:44:29.520Z,4.13
2022-08-29T13:48:00.363Z,2.70
2022-08-29T13:51:16.783Z,5.47
2022-08-29T13:55:11.574Z,2.60
2022-08-29T13:58:00.843Z,2.65
2022-08-29T14:02:07.953Z,2.60
2022-08-29T14:08:47.301Z,4.25
2022-08-29T14:11:58.688Z,2.40
2022-08-29T14:15:22.896Z,2.92
2022-08-29T14:23:19.114Z,4.85
2022-08-29T14:26:23.884Z,3.50
2022-08-29T14:29:33.442Z,3.20
2022-08-29T14:35:54.577Z,3.55
2022-08-29T14:39:11.664Z,2.65
2022-08-29T14:43:00.158Z,3.10
2022-08-29T14:46:23.126Z,4.03
2022-08-29T14:53:10.651Z,4.60
2022-08-29T15:01:15.738Z,4.53
2022-08-29T15:04:36.253Z,4.05
2022-08-29T15:07:24.076Z,4.22
2022-08-29T15:10:28.711Z,6.15
2022-08-29T15:13:21.753Z,3.78
2022-08-29T15:16:42.089Z,6.03
2022-08-29T15:23:05.843Z,4.90
2022-08-29T15:25:59.311Z,3.58
2022-08-29T15:28:48.784Z,2.95
2022-08-29T15:31:34.182Z,4.35
2022-08-29T15:34:35.009Z,3.05
2022-08-29T15:37:37.994Z,3.75
2022-08-29T15:40:45.913Z,2.90
2022-08-29T15:44:04.523Z,2.70
2022-08-29T15:47:16.940Z,5.22
2022-08-29T15:49:56.661Z,4.80
2022-08-29T15:53:36.259Z,6.60
2022-08-29T15:56:35.558Z,9.20
2022-08-29T15:59:41.101Z,2.95
2022-08-29T16:02:44.820Z,2.88
2022-08-29T16:05:36.845Z,2.97
2022-08-29T16:08:17.553Z,2.70
2022-08-29T16:11:22.914Z,2.60
2022-08-29T16:17:16.872Z,3.90
2022-08-29T16:20:03.558Z,2.40
2022-08-29T16:23:09.234Z,2.92
2022-08-29T16:26:25.946Z,3.85
2022-08-29T16:29:30.434Z,4.90
2022-08-29T16:32:24.319Z,3.13
2022-08-29T16:35:27.341Z,3.17
2022-08-29T16:38:28.883Z,3.53
2022-08-29T16:41:20.973Z,3.28
2022-08-29T16:44:24.125Z,3.28
2022-08-29T16:47:17.950Z,3.33
2022-08-29T16:49:50.479Z,3.13
2022-08-29T16:52:27.153Z,4.35
2022-08-29T16:55:23.487Z,3.20
2022-08-29T16:58:28.551Z,2.75
2022-08-29T17:01:38.058Z,3.08
2022-08-29T17:04:52.368Z,2.80
2022-08-29T17:07:49.071Z,3.50
2022-08-29T17:10:49.511Z,3.58
2022-08-29T17:13:43.686Z,2.97
2022-08-29T17:16:24.240Z,3.05
2022-08-29T17:19:11.778Z,5.47
2022-08-29T17:22:07.199Z,4.20
2022-08-29T17:25:08.543Z,4.30
2022-08-29T17:28:00.859Z,4.85
2022-08-29T17:31:19.925Z,5.05
2022-08-29T17:34:12.400Z,4.18
2022-08-29T17:37:00.128Z,5.68
2022-08-29T17:39:55.533Z,5.03
2022-08-29T17:42:59.342Z,6.43
2022-08-29T17:46:03.922Z,5.68
2022-08-29T17:49:21.767Z,7.00
2022-08-29T17:52:24.160Z,5.60
2022-08-29T17:55:23.299Z,6.25
2022-08-29T17:58:14.818Z,7.55
2022-08-29T18:00:56.452Z,6.20
2022-08-29T18:03:41.476Z,7.20
2022-08-29T18:06:48.153Z,4.78
2022-08-29T18:09:43.012Z,4.15
2022-08-29T18:12:35.599Z,8.23
2022-08-29T18:15:40.537Z,4.85
2022-08-29T18:18:38.714Z,7.47
2022-08-29T18:21:34.332Z,6.60
2022-08-29T18:24:27.288Z,5.13
2022-08-29T18:27:17.171Z,4.80
2022-08-29T18:30:14.032Z,5.72
2022-08-29T18:32:58.057Z,4.80
2022-08-29T18:36:00.134Z,5.53
2022-08-29T18:38:47.120Z,9.95
2022-08-29T18:41:26.283Z,4.72
2022-08-29T18:44:06.845Z,5.80
2022-08-29T18:47:02.670Z,5.65
2022-08-29T18:49:56.650Z,4.35
2022-08-29T18:52:54.922Z,4.93
2022-08-29T18:55:52.346Z,4.57
2022-08-29T18:59:08.174Z,5.18
2022-08-29T19:01:49.753Z,3.60
2022-08-29T19:04:51.418Z,4.63
2022-08-29T19:07:55.964Z,4.10
2022-08-29T19:10:48.028Z,3.25
2022-08-29T19:13:37.807Z,5.95
2022-08-29T19:16:41.503Z,5.85
2022-08-29T19:19:55.104Z,4.45
2022-08-29T19:23:07.631Z,4.90
2022-08-29T19:26:26.881Z,4.60
2022-08-29T19:32:26.924Z,3.35
2022-08-29T19:35:21.314Z,3.53
2022-08-29T19:38:49.742Z,3.80
2022-08-29T19:42:03.054Z,5.07
2022-08-29T19:45:17.903Z,5.80
2022-08-29T19:48:27.778Z,3.35
2022-08-29T19:51:21.046Z,6.00
2022-08-29T19:54:18.011Z,4.07
2022-08-29T19:57:17.907Z,4.45
2022-08-29T20:00:13.973Z,5.43
2022-08-29T20:03:25.732Z,4.38
2022-08-29T20:06:08.855Z,5.88
2022-08-29T20:08:53.710Z,3.63
2022-08-29T20:11:33.246Z,3.63
2022-08-29T20:14:44.872Z,5.30
2022-08-29T20:17:30.500Z,3.17
2022-08-29T20:20:19.508Z,3.97
2022-08-29T20:23:01.684Z,5.53
2022-08-29T20:25:35.715Z,5.75
2022-08-29T20:28:22.936Z,3.75
2022-08-29T20:30:58.620Z,3.80
2022-08-29T20:33:48.776Z,5.70
2022-08-29T20:36:43.165Z,4.90
2022-08-29T20:39:31.732Z,3.58
2022-08-29T20:42:11.992Z,5.13
2022-08-29T20:44:50.801Z,4.75
2022-08-29T20:47:29.021Z,4.30
2022-08-29T20:50:06.911Z,5.20
2022-08-29T20:52:48.247Z,4.10
2022-08-29T20:55:25.891Z,4.13
2022-08-29T20:57:59.495Z,5.32
2022-08-29T21:00:29.645Z,4.07
2022-08-29T21:05:57.104Z,4.32
2022-08-29T21:09:02.702Z,5.50
2022-08-29T21:11:35.220Z,6.63
2022-08-29T21:14:07.695Z,5.43
2022-08-29T21:16:51.952Z,4.70
2022-08-29T21:19:34.046Z,4.10
2022-08-29T21:22:16.456Z,5.50
2022-08-29T21:24:58.248Z,4.05
2022-08-29T21:27:34.102Z,4.72
2022-08-29T21:30:08.213Z,5.22
2022-08-29T21:32:50.010Z,7.32
2022-08-29T21:35:32.622Z,4.53
2022-08-29T21:38:20.560Z,3.80
2022-08-29T21:41:00.104Z,4.32
2022-08-29T21:43:45.020Z,4.95
2022-08-29T21:46:42.692Z,5.80
2022-08-29T21:49:27.199Z,5.18
2022-08-29T21:52:00.793Z,6.60
2022-08-29T21:54:42.791Z,4.70
2022-08-29T21:57:40.384Z,6.05
2022-08-29T22:00:16.621Z,3.95
2022-08-29T22:03:07.814Z,7.28
2022-08-29T22:05:43.854Z,5.85
2022-08-29T22:08:32.956Z,8.93
2022-08-29T22:11:25.727Z,9.32
2022-08-29T22:14:17.536Z,6.85
2022-08-29T22:16:52.825Z,9.18
2022-08-29T22:19:31.396Z,5.55
2022-08-29T22:22:05.961Z,5.43
2022-08-29T22:24:42.235Z,5.72
2022-08-29T22:27:25.051Z,5.93
2022-08-29T22:30:05.610Z,6.78
2022-08-29T22:32:38.757Z,7.47
2022-08-29T22:35:22.081Z,5.85
2022-08-29T22:38:05.826Z,5.97
2022-08-29T22:40:52.885Z,6.60
2022-08-29T22:43:29.819Z,5.85
2022-08-29T22:46:22.709Z,6.35
2022-08-29T22:48:58.044Z,9.18
2022-08-29T22:51:34.302Z,5.70
2022-08-29T22:54:36.649Z,6.07
2022-08-29T22:57:28.897Z,10.25
2022-08-29T23:00:07.974Z,8.45
2022-08-29T23:02:41.781Z,5.95
2022-08-29T23:05:26.905Z,6.60
2022-08-29T23:08:02.513Z,6.80
2022-08-29T23:10:49.121Z,8.32
2022-08-29T23:13:28.190Z,8.20
2022-08-29T23:16:09.630Z,12.00
2022-08-29T23:18:48.581Z,7.55
2022-08-29T23:21:28.144Z,6.53
2022-08-29T23:24:09.810Z,5.45
2022-08-29T23:27:01.357Z,7.93
2022-08-29T23:29:37.006Z,8.45
2022-08-29T23:32:31.424Z,7.22
2022-08-29T23:35:09.274Z,9.00
2022-08-29T23:37:45.396Z,6.40
2022-08-29T23:40:29.907Z,7.97
2022-08-29T23:43:12.414Z,7.65
2022-08-29T23:45:44.594Z,5.82
2022-08-29T23:48:22.951Z,8.93
2022-08-29T23:51:00.296Z,6.78
2022-08-29T23:53:43.729Z,10.32
2022-08-29T23:56:27.162Z,10.45
2022-08-29T23:59:09.568Z,6.18
